site sitenws-alerts: Checking more than four warning/county codes can delay the loading of your pages. You should use a cron job to get the data.

Nearby METAR Weather Reports

 

KETB - West Bend Municipal Airport, West Bend, WI
Updated: 11/19/2019 8:35pm
Overcast
Overcast
 Wind from calm
Wind: Calm
Temperature: 34°F , 1°C
Dew Point: 32°F , 0°C
Humidity: 93%
Barometer: 29.95 inHg , 1014.2 hPa
Clouds: Overcast
Visibility: 10 miles , 16 km
Cloud details: Partly cloudy 1900 ft
Overcast 3200 ft
2019/11/20 02:35 KETB 200235Z AUTO 00000KT 10SM SCT019 OVC032 01/00 A2995 RMK AO2
KOSH - Wittman Regional Airport, Oshkosh, WI
Updated: 11/19/2019 8:40pm
Mist, Overcast
Mist, Overcast
 Wind from S
Wind: S 3 mph , 6 km/h
Temperature: 34°F , 1°C
Dew Point: 30°F , -1°C
Humidity: 87%
Barometer: 29.94 inHg , 1013.9 hPa
Summary: Mist
Clouds: Overcast
Visibility: 6 miles , 10 km
Cloud details: Partly cloudy 1600 ft
Overcast 3200 ft
2019/11/20 02:40 KOSH 200240Z 19003KT 6SM BR SCT016 OVC032 01/M01 A2994 RMK AO2 T00061006
 
KSBM - Sheboygan County Memorial, Sheboygan, WI
Updated: 11/19/2019 7:53pm
Overcast
Overcast
 Wind from calm
Wind: Calm
Temperature: 34°F , 1°C
Dew Point: 30°F , -1°C
Humidity: 87%
Barometer: 29.94 inHg , 1013.9 hPa
Clouds: Overcast
Visibility: 7 miles , 11 km
Cloud details: Overcast 3000 ft
2019/11/20 01:53 KSBM 200153Z AUTO 00000KT 7SM OVC030 01/M01 A2994 RMK AO2 SLP146 T00061006
KFLD - FDL County Airport, Fond du Lac, WI
Updated: 11/19/2019 7:53pm
Overcast
Overcast
 Wind from S
Wind: S 3 mph , 6 km/h
Temperature: 36°F , 2°C
Dew Point: 30°F , -1°C
Humidity: 81%
Barometer: 29.94 inHg , 1013.9 hPa
Clouds: Overcast
Visibility: 9 miles , 14 km
Cloud details: Overcast 1200 ft
2019/11/20 01:53 KFLD 200153Z AUTO 19003KT 9SM OVC012 02/M01 A2994 RMK AO2 SLP146 T00171006
 
KMKE - General Mitchell Field, Milwaukee, WI
Updated: 11/19/2019 7:52pm
Overcast
Overcast
 Wind from WNW
Wind: WNW 5 mph , 7 km/h
Temperature: 39°F , 4°C
Wind Chill: 35°F , 2°C
Dew Point: 30°F , -1°C
Humidity: 70%
Barometer: 29.95 inHg , 1014.2 hPa
Clouds: Overcast
Visibility: 10 miles , 16 km
Cloud details: Overcast 3200 ft
2019/11/20 01:52 KMKE 200152Z 30004KT 10SM OVC032 04/M01 A2995 RMK AO2 SLP149 T00391006
KMSN - Truax Field, Madison, WI
Updated: 11/19/2019 7:53pm
Mist, Overcast
Mist, Overcast
 Wind from calm
Wind: Calm
Temperature: 37°F , 3°C
Dew Point: 34°F , 1°C
Humidity: 87%
Barometer: 29.93 inHg , 1013.5 hPa
Summary: Mist
Clouds: Overcast
Visibility: 6 miles , 10 km
Cloud details: Overcast 900 ft
2019/11/20 01:53 KMSN 200153Z 00000KT 6SM BR OVC009 03/01 A2993 RMK AO2 SLP145 T00280011
 
KGRB - Austin Strable Field, Green Bay, WI
Updated: 11/19/2019 7:53pm
Overcast
Overcast
 Wind from SSW
Wind: SSW 5 mph , 7 km/h
Temperature: 32°F , 0°C
Wind Chill: 27°F , -3°C
Dew Point: 28°F , -2°C
Humidity: 87%
Barometer: 29.93 inHg , 1013.5 hPa
Clouds: Overcast
Visibility: 9 miles , 14 km
Cloud details: Few Clouds 3000 ft
Overcast 3600 ft
2019/11/20 01:53 KGRB 200153Z 21004KT 9SM FEW030 OVC036 00/M02 A2993 RMK AO2 SLP143 T00001022
KSUW - Bong Airport, Superior, WI
Updated: 11/19/2019 5:15pm
NOT Current
Mist, Overcast
Mist, Overcast
 Wind from SW
Wind: SW 5 mph , 7 km/h
Temperature: 36°F , 2°C
Wind Chill: 32°F , 0°C
Dew Point: 34°F , 1°C
Humidity: 93%
Barometer: 29.86 inHg , 1011.2 hPa
Summary: Mist
Clouds: Overcast
Visibility: 5 miles , 8 km
Cloud details: Overcast 800 ft
2019/11/19 23:15 KSUW 192315Z AUTO 22004KT 5SM BR OVC008 02/01 A2986 RMK AO2 T00160008
 
KLSE - La Crosse Municipal Airport, La Crosse, WI
Updated: 11/19/2019 7:53pm
Fog, Overcast
Fog, Overcast
 Wind from calm
Wind: Calm
Temperature: 37°F , 3°C
Dew Point: 36°F , 2°C
Humidity: 93%
Barometer: 29.92 inHg , 1013.2 hPa
Summary: Fog
Clouds: Overcast
Visibility: 1/2 mile , 0.8 km
Cloud details: Overcast 300 ft
2019/11/20 01:53 KLSE 200153Z 00000KT 1/2SM FG VV003 03/02 A2992 RMK AO2 SLP143 T00330017
KIMT - Ford Field, Iron Mountain, MI
Updated: 11/19/2019 7:54pm
Overcast
Overcast
 Wind from calm
Wind: Calm
Temperature: 34°F , 1°C
Dew Point: 27°F , -3°C
Humidity: 75%
Barometer: 29.87 inHg , 1011.5 hPa
Clouds: Overcast
Visibility: 10 miles , 16 km
Cloud details: Mostly cloudy 2500 ft
Overcast 11000 ft
2019/11/20 01:54 KIMT 200154Z AUTO 00000KT 10SM BKN025 OVC110 01/M03 A2987 RMK AO2 SLP130 T00061033
 
KSAW - K.I. Sawyer Field, Marquette, MI
Updated: 11/19/2019 7:47pm
Overcast
Overcast
 Wind from SSW
Wind: SSW 5 mph , 7 km/h
Temperature: 36°F , 2°C
Wind Chill: 32°F , 0°C
Dew Point: 32°F , 0°C
Humidity: 87%
Barometer: 29.86 inHg , 1011.2 hPa
Clouds: Overcast
Visibility: 10 miles , 16 km
Cloud details: Overcast 7500 ft
2019/11/20 01:47 KSAW 200147Z 20004KT 10SM OVC075 02/00 A2986
KIWD - Iron County Airport, Ironwood, MI
Updated: 11/19/2019 7:56pm
Mist, Overcast
Mist, Overcast
 Wind from SW
Wind: SW 5 mph , 7 km/h
Temperature: 34°F , 1°C
Wind Chill: 29°F , -2°C
Dew Point: 30°F , -1°C
Humidity: 87%
Barometer: 29.88 inHg , 1011.9 hPa
Summary: Mist
Clouds: Overcast
Visibility: 6 miles , 10 km
Cloud details: Overcast 900 ft
2019/11/20 01:56 KIWD 200156Z AUTO 22004KT 6SM BR OVC009 01/M01 A2988 RMK AO2 SLP134 T00061006 FZRANO